Time;durP1;ratioP1;P1;durP2;ratioP2;P2;SDS_P1;SDS_P2;PMS_P1;PMS_P2;Temp;Humidity;BMP_temperature;BMP_pressure;BME280_temperature;BME280_humidity;BME280_pressure;Samples;Min_cycle;Max_cycle;Signal;HPM_P1;HPM_P2
2022/10/06 00:00:21;;;;;;;19.65;13.00;;;;;;;12.72;94.97;101537.63;4990935;28;20042;-67
2022/10/06 00:02:47;;;;;;;18.65;12.60;;;;;;;12.71;95.01;101535.88;4989015;28;20101;-66
2022/10/06 00:05:12;;;;;;;19.08;13.80;;;;;;;12.69;94.75;101545.06;4989879;28;20037;-66
2022/10/06 00:07:38;;;;;;;16.75;12.48;;;;;;;12.69;94.63;101540.56;4990608;28;20509;-67
2022/10/06 00:10:05;;;;;;;20.20;11.85;;;;;;;12.67;94.85;101534.41;4990844;28;20026;-66
2022/10/06 00:12:42;;;;;;;19.90;13.13;;;;;;;12.67;94.75;101537.09;4990449;28;20404;-66
2022/10/06 00:15:10;;;;;;;18.08;13.00;;;;;;;12.65;95.08;101539.06;4990662;28;20041;-67
2022/10/06 00:17:36;;;;;;;17.50;12.98;;;;;;;12.63;94.56;101534.75;4990787;28;20100;-67
2022/10/06 00:20:01;;;;;;;17.50;11.90;;;;;;;12.55;95.26;101518.38;4990610;28;20136;-67
2022/10/06 00:22:48;;;;;;;20.02;12.18;;;;;;;12.60;94.62;101524.22;4990469;28;20022;-66
2022/10/06 00:25:18;;;;;;;18.58;12.32;;;;;;;12.59;94.91;101517.16;4990288;28;20385;-67
2022/10/06 00:27:47;;;;;;;18.25;12.60;;;;;;;12.54;95.01;101511.28;4990192;28;20026;-67
2022/10/06 00:30:19;;;;;;;17.40;12.55;;;;;;;12.59;95.16;101520.72;4990148;28;20038;-66
2022/10/06 00:32:59;;;;;;;15.40;12.27;;;;;;;12.46;95.31;101489.47;4990209;28;20038;-67
2022/10/06 00:35:32;;;;;;;16.58;12.02;;;;;;;12.56;94.96;101503.91;4990087;28;20046;-65
2022/10/06 00:37:57;;;;;;;21.02;13.40;;;;;;;12.54;95.15;101509.41;4990201;28;20030;-65
2022/10/06 00:40:23;;;;;;;18.50;12.93;;;;;;;12.52;95.62;101515.91;4990184;28;20081;-65
2022/10/06 00:42:53;;;;;;;15.65;12.70;;;;;;;12.50;95.37;101505.25;4989813;28;20059;-67
2022/10/06 00:45:46;;;;;;;19.15;12.82;;;;;;;12.49;95.70;101510.75;4989937;28;20019;-67
2022/10/06 00:48:22;;;;;;;20.25;14.30;;;;;;;12.49;95.16;101502.69;4989842;28;20023;-67
2022/10/06 00:50:50;;;;;;;18.40;13.20;;;;;;;12.49;95.45;101505.38;4970691;28;20081;-66
2022/10/06 00:53:16;;;;;;;17.42;11.55;;;;;;;12.47;95.83;101501.94;4970251;28;20059;-66
2022/10/06 00:55:42;;;;;;;20.10;13.05;;;;;;;12.46;95.11;101492.16;4970525;28;20368;-66
2022/10/06 00:58:08;;;;;;;18.08;12.70;;;;;;;12.42;95.15;101490.69;4970448;28;20483;-66
2022/10/06 01:00:34;;;;;;;19.83;13.10;;;;;;;12.35;95.51;101490.28;4970363;28;20082;-66
2022/10/06 01:03:23;;;;;;;22.48;14.25;;;;;;;12.35;95.63;101492.13;4969583;28;20046;-67
2022/10/06 01:05:50;;;;;;;18.58;12.88;;;;;;;12.29;95.56;101479.16;4971003;28;20026;-65
2022/10/06 01:08:17;;;;;;;19.02;13.25;;;;;;;12.35;95.43;101492.97;4985640;28;20039;-67
2022/10/06 01:10:43;;;;;;;18.10;12.48;;;;;;;12.32;95.27;101487.81;4970786;28;20039;-65
2022/10/06 01:13:13;;;;;;;16.38;13.15;;;;;;;12.31;95.02;101486.13;4970664;28;20497;-66
2022/10/06 01:15:46;;;;;;;19.35;12.65;;;;;;;12.30;95.48;101486.22;4970421;28;20027;-66
2022/10/06 01:18:15;;;;;;;18.65;13.75;;;;;;;12.22;95.83;101485.97;4970563;28;20050;-65
2022/10/06 01:20:46;;;;;;;19.88;13.60;;;;;;;12.24;95.35;101489.38;4969453;28;20038;-66
2022/10/06 01:23:12;;;;;;;18.85;12.95;;;;;;;12.21;96.15;101492.31;4970918;28;20527;-65
2022/10/06 01:25:38;;;;;;;22.50;13.80;;;;;;;12.20;96.14;101493.28;4970484;28;20023;-67
2022/10/06 01:28:05;;;;;;;24.08;14.13;;;;;;;12.19;96.33;101496.97;4970578;28;20113;-67
2022/10/06 01:30:53;;;;;;;19.20;13.70;;;;;;;12.15;96.93;101488.25;4985526;28;20057;-66
2022/10/06 01:33:20;;;;;;;18.75;12.85;;;;;;;12.13;96.58;101495.59;4970712;28;20047;-67
2022/10/06 01:35:49;;;;;;;18.88;13.05;;;;;;;12.13;96.59;101489.34;4985337;28;20035;-66
2022/10/06 01:38:14;;;;;;;21.15;13.00;;;;;;;12.05;96.48;101478.31;4970404;28;20400;-66
2022/10/06 01:40:40;;;;;;;19.88;12.70;;;;;;;12.05;96.71;101484.56;4978045;28;20121;-67
2022/10/06 01:43:05;;;;;;;19.15;13.32;;;;;;;12.10;96.50;101489.59;4990001;28;20482;-67
2022/10/06 01:45:31;;;;;;;20.40;12.00;;;;;;;12.02;96.49;101481.25;4990174;28;20030;-66
2022/10/06 01:47:56;;;;;;;21.65;13.30;;;;;;;12.04;96.88;101488.22;4990031;28;20041;-66
2022/10/06 01:50:22;;;;;;;26.00;13.13;;;;;;;12.04;96.67;101484.66;4972120;28;20030;-67
2022/10/06 01:52:47;;;;;;;21.23;14.50;;;;;;;12.03;96.26;101491.03;4970637;28;20486;-66
2022/10/06 01:55:14;;;;;;;19.42;14.48;;;;;;;11.97;96.89;101481.59;4970513;28;20033;-66
2022/10/06 01:57:42;;;;;;;22.42;16.63;;;;;;;11.78;96.54;101449.00;4970325;28;20023;-66
2022/10/06 02:00:09;;;;;;;23.92;17.83;;;;;;;11.97;97.33;101486.97;4970576;28;20019;-66
2022/10/06 02:02:35;;;;;;;27.27;18.10;;;;;;;11.96;97.52;101489.78;4970834;28;20081;-66
2022/10/06 02:05:00;;;;;;;25.63;16.92;;;;;;;11.95;97.23;101488.03;4970387;28;20030;-66
2022/10/06 02:07:26;;;;;;;23.23;17.08;;;;;;;11.95;97.12;101496.09;4970403;28;20027;-66
2022/10/06 02:09:51;;;;;;;20.92;15.63;;;;;;;11.93;97.56;101488.16;4969460;28;20525;-67
2022/10/06 02:12:16;;;;;;;21.48;14.88;;;;;;;11.82;97.62;101466.59;4970386;28;20034;-66
2022/10/06 02:14:42;;;;;;;17.33;13.68;;;;;;;11.87;97.11;101475.19;4970637;28;20038;-67
2022/10/06 02:17:08;;;;;;;18.55;14.27;;;;;;;11.95;97.38;101493.41;4970424;28;20090;-66
2022/10/06 02:19:34;;;;;;;23.00;15.00;;;;;;;11.92;97.54;101493.63;4968793;28;20027;-67
2022/10/06 02:21:59;;;;;;;20.88;13.02;;;;;;;11.85;97.65;101481.63;4970477;28;20042;-67
2022/10/06 02:24:25;;;;;;;20.55;14.80;;;;;;;11.91;97.74;101489.25;4970160;28;20046;-66
2022/10/06 02:26:51;;;;;;;19.98;13.32;;;;;;;11.90;97.49;101490.22;4985957;28;20033;-67
2022/10/06 02:29:17;;;;;;;18.23;13.77;;;;;;;11.88;97.81;101486.78;4992852;28;20465;-68
2022/10/06 02:31:42;;;;;;;19.70;13.80;;;;;;;11.73;98.15;101469.13;4989070;28;20041;-66
2022/10/06 02:34:08;;;;;;;21.30;14.05;;;;;;;11.81;97.71;101483.72;4981118;28;20034;-66
2022/10/06 02:36:34;;;;;;;21.42;13.77;;;;;;;11.79;98.18;101477.56;4981198;28;20110;-66
2022/10/06 02:39:00;;;;;;;24.42;14.27;;;;;;;11.79;98.60;101490.16;4987945;28;20042;-67
2022/10/06 02:41:28;;;;;;;19.65;13.60;;;;;;;11.75;98.17;101488.66;4985672;28;20184;-67
2022/10/06 02:43:54;;;;;;;20.20;13.65;;;;;;;11.77;98.89;101500.19;4983697;28;20113;-67
2022/10/06 02:46:21;;;;;;;19.50;14.30;;;;;;;11.71;98.71;101490.75;4988805;28;20144;-67
2022/10/06 02:48:46;;;;;;;22.10;14.20;;;;;;;11.68;98.93;101482.03;5010565;28;20057;-66
2022/10/06 02:51:15;;;;;;;18.58;12.70;;;;;;;11.76;98.44;101501.13;4983321;28;20061;-66
2022/10/06 02:53:42;;;;;;;21.48;13.43;;;;;;;11.73;98.94;101499.53;4984112;28;20039;-67
2022/10/06 02:56:09;;;;;;;21.17;14.15;;;;;;;11.74;98.83;101503.97;4990538;28;20109;-66
2022/10/06 02:58:47;;;;;;;18.80;13.73;;;;;;;11.69;98.91;101491.81;4984351;28;20034;-66
2022/10/06 03:01:15;;;;;;;17.35;13.50;;;;;;;11.71;98.98;101501.50;4984134;28;20124;-67
2022/10/06 03:03:41;;;;;;;23.85;14.63;;;;;;;11.63;98.77;101500.31;4984135;28;20050;-66
2022/10/06 03:06:23;;;;;;;23.25;14.48;;;;;;;11.37;99.25;101465.47;4982281;28;20034;-66
2022/10/06 03:08:53;;;;;;;16.42;12.85;;;;;;;11.62;99.58;101512.03;4985397;28;20519;-66
2022/10/06 03:11:20;;;;;;;18.20;13.00;;;;;;;11.56;99.27;101507.94;4982708;28;20038;-66
2022/10/06 03:13:48;;;;;;;19.25;13.57;;;;;;;11.57;99.71;101508.81;4982393;28;20046;-67
2022/10/06 03:16:19;;;;;;;18.48;13.77;;;;;;;11.52;100.00;101506.47;4982830;28;20062;-67
2022/10/06 03:18:46;;;;;;;18.65;14.25;;;;;;;11.48;100.00;101511.19;4982061;28;20119;-67
2022/10/06 03:21:14;;;;;;;17.23;12.57;;;;;;;11.39;100.00;101503.78;4982691;28;20034;-67
2022/10/06 03:23:41;;;;;;;17.70;13.55;;;;;;;11.45;100.00;101524.84;4983585;28;20023;-67
2022/10/06 03:26:07;;;;;;;19.48;13.55;;;;;;;11.42;100.00;101527.75;4983322;28;20462;-67
2022/10/06 03:28:32;;;;;;;17.48;13.35;;;;;;;11.30;100.00;101498.22;4980228;28;20092;-67
2022/10/06 03:31:01;;;;;;;24.48;14.32;;;;;;;11.39;100.00;101522.59;4982636;28;20027;-65
2022/10/06 03:33:28;;;;;;;18.55;13.00;;;;;;;11.27;100.00;101511.88;4980472;28;20039;-66
2022/10/06 03:36:01;;;;;;;17.67;14.05;;;;;;;11.33;100.00;101530.25;4981609;28;20037;-67
2022/10/06 03:38:28;;;;;;;20.77;14.60;;;;;;;11.33;100.00;101533.81;4981484;28;20026;-66
2022/10/06 03:41:06;;;;;;;20.00;14.70;;;;;;;11.28;100.00;101538.63;4987038;28;20108;-65
2022/10/06 03:43:33;;;;;;;18.10;13.07;;;;;;;11.25;100.00;101530.78;4991618;28;20454;-66
2022/10/06 03:46:00;;;;;;;22.63;14.38;;;;;;;11.17;100.00;101526.94;4991838;28;20125;-76
2022/10/06 03:48:27;;;;;;;20.48;13.45;;;;;;;11.17;100.00;101535.88;4992103;28;20034;-78
2022/10/06 03:50:57;;;;;;;20.45;14.90;;;;;;;11.14;100.00;101538.75;4993041;28;20030;-77
2022/10/06 03:53:27;;;;;;;17.90;13.52;;;;;;;11.11;100.00;101540.78;4993403;28;20077;-76
2022/10/06 03:56:06;;;;;;;19.55;13.77;;;;;;;11.08;100.00;101535.63;4992487;28;20124;-77
2022/10/06 03:58:34;;;;;;;19.92;13.20;;;;;;;11.03;100.00;101535.97;4993777;28;20377;-77
2022/10/06 04:01:01;;;;;;;22.00;15.13;;;;;;;11.00;100.00;101541.53;4992164;28;20034;-78
2022/10/06 04:03:27;;;;;;;21.52;14.63;;;;;;;10.89;100.00;101529.84;4993609;28;20049;-78
2022/10/06 04:05:55;;;;;;;23.27;15.05;;;;;;;10.97;100.00;101544.44;4991287;28;20030;-66
2022/10/06 04:08:20;;;;;;;20.58;14.55;;;;;;;10.86;100.00;101532.72;4990551;28;20045;-66
2022/10/06 04:10:46;;;;;;;22.50;15.90;;;;;;;10.81;100.00;101530.38;4990022;28;20034;-65
2022/10/06 04:13:14;;;;;;;23.83;15.55;;;;;;;10.87;100.00;101545.22;4990887;28;20120;-67
2022/10/06 04:15:40;;;;;;;23.98;15.82;;;;;;;10.74;100.00;101529.09;4990934;28;20034;-65
2022/10/06 04:18:05;;;;;;;21.67;15.52;;;;;;;10.84;100.00;101550.78;4990021;28;20022;-66
2022/10/06 04:20:31;;;;;;;28.38;15.70;;;;;;;10.80;100.00;101542.06;4989250;28;20138;-67
2022/10/06 04:22:56;;;;;;;26.30;16.58;;;;;;;10.79;100.00;101547.53;4989065;28;20034;-66
2022/10/06 04:25:22;;;;;;;28.25;15.70;;;;;;;10.52;100.00;101504.72;4983439;28;20034;-66
2022/10/06 04:27:47;;;;;;;23.98;16.08;;;;;;;10.69;100.00;101531.25;4988378;28;20030;-67
2022/10/06 04:30:13;;;;;;;21.65;15.48;;;;;;;10.76;100.00;101551.31;4989172;28;20057;-66
2022/10/06 04:32:39;;;;;;;23.77;15.40;;;;;;;10.79;100.00;101561.84;4989628;28;20093;-66
2022/10/06 04:35:05;;;;;;;20.80;14.77;;;;;;;10.75;100.00;101546.91;4990138;28;20033;-65
2022/10/06 04:37:30;;;;;;;20.73;15.55;;;;;;;10.80;100.00;101554.66;4990529;28;20485;-66
2022/10/06 04:39:56;;;;;;;27.52;16.33;;;;;;;10.79;100.00;101558.28;4988837;28;20026;-66
2022/10/06 04:42:21;;;;;;;26.13;16.48;;;;;;;10.55;100.00;101512.53;4990213;28;20775;-66
2022/10/06 04:44:47;;;;;;;26.50;15.45;;;;;;;10.67;100.00;101543.88;4990662;28;20042;-65
2022/10/06 04:47:12;;;;;;;23.65;15.60;;;;;;;10.75;100.00;101563.03;4990670;28;20145;-67
2022/10/06 04:49:37;;;;;;;23.25;16.75;;;;;;;10.62;100.00;101545.19;4990036;28;20049;-66
2022/10/06 04:52:03;;;;;;;25.25;16.80;;;;;;;10.63;100.00;101545.06;4989959;28;20033;-65
2022/10/06 04:54:28;;;;;;;26.20;15.75;;;;;;;10.59;100.00;101540.03;4989164;28;20548;-65
2022/10/06 04:56:55;;;;;;;21.75;15.13;;;;;;;10.55;100.00;101543.88;4989906;28;20260;-66
2022/10/06 05:00:21;;;;;;;22.83;14.93;;;;;;;10.59;100.00;101559.66;4990384;28;20520;-66
2022/10/06 05:02:06;;;;;;;23.50;15.25;;;;;;;10.50;100.00;101552.25;4990225;28;21863;-66
2022/10/06 05:04:32;;;;;;;23.83;15.75;;;;;;;10.49;100.00;101553.22;4990759;28;20026;-65
2022/10/06 05:06:57;;;;;;;23.48;14.98;;;;;;;10.43;100.00;101550.06;4988909;28;20038;-66
2022/10/06 05:09:22;;;;;;;25.08;16.10;;;;;;;10.45;100.00;101558.88;4990315;28;20049;-67
2022/10/06 05:11:48;;;;;;;23.67;14.82;;;;;;;10.34;100.00;101546.19;4990437;28;20026;-66
2022/10/06 05:14:13;;;;;;;22.58;15.80;;;;;;;10.32;100.00;101550.78;4990277;28;20029;-65
2022/10/06 05:16:39;;;;;;;23.52;16.10;;;;;;;10.39;100.00;101562.84;4988545;28;20033;-65
2022/10/06 05:19:04;;;;;;;24.60;15.70;;;;;;;10.30;100.00;101549.19;4988825;28;20038;-67
2022/10/06 05:21:31;;;;;;;29.48;18.85;;;;;;;10.34;100.00;101564.09;4990129;28;20038;-67
2022/10/06 05:23:57;;;;;;;33.30;20.92;;;;;;;10.27;100.00;101555.63;4989962;28;21812;-66
2022/10/06 05:26:26;;;;;;;30.65;20.42;;;;;;;10.39;100.00;101575.38;4989359;28;20105;-65
2022/10/06 05:28:52;;;;;;;29.20;19.38;;;;;;;10.26;100.00;101550.34;4989594;28;20108;-67
2022/10/06 05:31:20;;;;;;;60.45;39.22;;;;;;;10.27;100.00;101542.22;4989780;28;20058;-67
2022/10/06 05:33:46;;;;;;;56.83;35.38;;;;;;;10.39;100.00;101565.53;4990103;28;20041;-66
2022/10/06 05:36:14;;;;;;;54.10;31.80;;;;;;;10.40;100.00;101575.28;5002085;28;20120;-66
2022/10/06 05:38:40;;;;;;;45.13;28.65;;;;;;;10.42;100.00;101575.19;5001005;28;20088;-67
2022/10/06 05:41:17;;;;;;;39.38;24.23;;;;;;;10.47;100.00;101576.59;4988076;28;20034;-66
2022/10/06 05:43:43;;;;;;;41.88;24.23;;;;;;;10.43;100.00;101563.47;4989915;28;20481;-66
2022/10/06 05:46:16;;;;;;;42.13;24.13;;;;;;;10.56;100.00;101580.47;4990024;28;20038;-66
2022/10/06 05:48:48;;;;;;;33.03;20.77;;;;;;;10.63;100.00;101588.00;4988847;28;20153;-67
2022/10/06 05:51:13;;;;;;;27.60;19.48;;;;;;;10.63;100.00;101571.03;4988380;28;20167;-66
2022/10/06 05:53:39;;;;;;;27.15;18.27;;;;;;;10.79;100.00;101594.03;4990188;28;20062;-65
2022/10/06 05:56:16;;;;;;;23.00;17.08;;;;;;;10.87;100.00;101594.34;4989886;28;20042;-67
2022/10/06 05:58:44;;;;;;;26.50;17.85;;;;;;;10.88;100.00;101580.00;4989598;28;20041;-66
2022/10/06 06:01:11;;;;;;;24.08;16.10;;;;;;;11.11;100.00;101595.38;4990735;28;20038;-66
2022/10/06 06:03:37;;;;;;;29.15;17.35;;;;;;;11.18;100.00;101596.66;4993398;28;20489;-66
2022/10/06 06:06:10;;;;;;;25.10;17.88;;;;;;;11.20;100.00;101591.16;4993658;28;20444;-66
2022/10/06 06:08:36;;;;;;;31.13;17.45;;;;;;;11.37;100.00;101613.19;4993349;28;20424;-66
2022/10/06 06:11:06;;;;;;;23.88;17.15;;;;;;;11.48;100.00;101612.41;4993499;28;20038;-67
2022/10/06 06:13:32;;;;;;;20.23;14.98;;;;;;;11.38;100.00;101573.75;4978116;28;20033;-65
2022/10/06 06:16:03;;;;;;;26.98;18.00;;;;;;;11.52;100.00;101577.16;4991300;28;20030;-66
2022/10/06 06:18:33;;;;;;;25.40;17.40;;;;;;;11.81;100.00;101606.50;4992938;28;20045;-66
2022/10/06 06:21:01;;;;;;;24.55;16.30;;;;;;;11.91;100.00;101604.84;4993039;28;20038;-66
2022/10/06 06:23:38;;;;;;;26.35;17.38;;;;;;;12.02;100.00;101602.25;4993093;28;20054;-65
2022/10/06 06:26:09;;;;;;;23.60;17.88;;;;;;;12.01;100.00;101592.44;4979158;28;20026;-67
2022/10/06 06:28:35;;;;;;;25.23;18.40;;;;;;;12.25;100.00;101613.00;4993165;28;20030;-66
2022/10/06 06:31:09;;;;;;;26.30;19.30;;;;;;;12.28;100.00;101599.34;4993422;28;20089;-66
2022/10/06 06:33:36;;;;;;;26.75;19.27;;;;;;;12.48;100.00;101605.94;4993546;28;20660;-66
2022/10/06 06:36:10;;;;;;;28.73;19.33;;;;;;;12.62;100.00;101611.97;4993198;28;20594;-67
2022/10/06 06:38:36;;;;;;;25.65;17.50;;;;;;;12.75;100.00;101604.69;4992757;28;20049;-66
2022/10/06 06:41:01;;;;;;;27.20;17.38;;;;;;;12.88;100.00;101594.69;4991362;28;20038;-66
2022/10/06 06:43:27;;;;;;;24.52;17.08;;;;;;;13.00;98.61;101599.16;4991353;28;20042;-67
2022/10/06 06:45:52;;;;;;;19.80;15.65;;;;;;;12.99;97.97;101575.91;4992644;28;20112;-66
2022/10/06 06:48:17;;;;;;;26.02;15.90;;;;;;;13.20;97.34;101585.00;4992681;28;20026;-67
2022/10/06 06:50:44;;;;;;;21.13;14.18;;;;;;;13.42;96.03;101593.09;4992498;28;20488;-66
2022/10/06 06:53:10;;;;;;;24.40;16.02;;;;;;;13.41;94.48;101572.50;4993085;28;20092;-66
2022/10/06 06:55:35;;;;;;;18.77;14.43;;;;;;;13.57;93.74;101572.13;4992770;28;20030;-65
2022/10/06 06:58:01;;;;;;;21.70;14.70;;;;;;;13.89;91.19;101600.06;4992461;28;20031;-66
2022/10/06 07:00:26;;;;;;;20.67;14.98;;;;;;;14.04;89.93;101603.34;4992528;28;20489;-66
2022/10/06 07:02:55;;;;;;;18.52;14.35;;;;;;;14.14;89.20;101599.78;4991460;28;20058;-65
2022/10/06 07:05:21;;;;;;;23.02;15.23;;;;;;;14.32;88.18;101613.63;4992715;28;20037;-66
2022/10/06 07:07:47;;;;;;;18.17;13.95;;;;;;;14.50;86.47;101604.84;4993045;28;20042;-67
2022/10/06 07:10:13;;;;;;;18.98;14.77;;;;;;;14.56;85.53;101585.44;4990531;28;20050;-66
2022/10/06 07:12:38;;;;;;;23.05;14.90;;;;;;;14.77;85.26;101597.09;4999668;28;20038;-66
2022/10/06 07:26:02;;;;;;;20.33;14.45;;;;;;;15.53;79.14;101578.69;4977769;28;20340;-66
2022/10/06 07:28:31;;;;;;;22.88;14.70;;;;;;;15.81;78.05;101596.88;4983395;28;20477;-65
2022/10/06 07:30:59;;;;;;;20.13;14.25;;;;;;;16.11;76.80;101589.69;4988585;28;20524;-66
2022/10/06 07:33:27;;;;;;;18.15;12.50;;;;;;;16.42;73.63;101584.06;4993083;28;20138;-66
2022/10/06 07:35:53;;;;;;;18.65;12.93;;;;;;;17.20;70.05;101601.03;5001746;28;20030;-67
2022/10/06 07:38:24;;;;;;;19.15;13.10;;;;;;;17.72;67.75;101602.31;4995981;28;20396;-66
2022/10/06 07:40:54;;;;;;;17.95;12.00;;;;;;;18.25;64.54;101597.03;5008544;28;20108;-65
2022/10/06 07:43:19;;;;;;;16.38;12.63;;;;;;;18.55;62.86;101603.00;5003463;28;20034;-66
2022/10/06 07:45:45;;;;;;;20.73;11.75;;;;;;;18.77;62.07;101598.94;4994166;28;20041;-67
2022/10/06 07:48:14;;;;;;;14.45;12.52;;;;;;;19.08;60.77;101611.97;4996605;28;20036;-65
2022/10/06 07:50:42;;;;;;;19.30;11.77;;;;;;;19.29;59.99;101596.19;4992566;28;20022;-66
2022/10/06 07:53:08;;;;;;;17.92;12.55;;;;;;;19.58;58.99;101604.00;5000819;28;20453;-66
2022/10/06 07:55:38;;;;;;;17.02;11.80;;;;;;;19.73;58.61;101605.97;5002348;28;20061;-66
2022/10/06 07:58:17;;;;;;;21.95;13.40;;;;;;;19.88;58.65;101607.06;4995957;28;20084;-65
2022/10/06 08:00:44;;;;;;;16.10;13.07;;;;;;;20.01;57.75;101604.75;4995120;28;20112;-66
2022/10/06 08:03:16;;;;;;;16.63;13.27;;;;;;;20.10;57.81;101611.06;5004947;28;20472;-67
2022/10/06 08:05:43;;;;;;;18.27;13.77;;;;;;;20.13;57.30;101610.78;4991906;28;20488;-66
2022/10/06 08:08:08;;;;;;;17.45;12.88;;;;;;;20.15;57.12;101612.31;5004081;28;20597;-67
2022/10/06 08:10:34;;;;;;;19.58;13.13;;;;;;;20.17;57.32;101610.28;4997517;28;20164;-67
2022/10/06 08:13:00;;;;;;;14.50;11.38;;;;;;;20.39;56.76;101613.41;4997765;28;20065;-67
2022/10/06 08:15:26;;;;;;;18.58;12.85;;;;;;;20.26;56.57;101626.66;5000178;28;20057;-67
2022/10/06 08:17:52;;;;;;;14.82;12.40;;;;;;;20.14;57.28;101628.81;4992226;28;20069;-65
2022/10/06 08:20:18;;;;;;;16.08;11.40;;;;;;;20.24;56.59;101625.97;4995112;28;20034;-66
2022/10/06 08:22:46;;;;;;;17.15;12.43;;;;;;;20.08;57.49;101633.03;4994893;28;20541;-66
2022/10/06 08:25:11;;;;;;;18.27;11.77;;;;;;;19.88;58.00;101615.25;5001999;28;20089;-66
2022/10/06 08:27:37;;;;;;;19.08;12.20;;;;;;;19.88;57.95;101628.00;4991966;28;20117;-66
2022/10/06 08:30:08;;;;;;;15.85;11.35;;;;;;;19.86;58.45;101624.56;4990272;28;20022;-67
2022/10/06 08:32:34;;;;;;;14.52;10.88;;;;;;;19.92;58.33;101626.66;4989766;28;20073;-66
2022/10/06 08:34:59;;;;;;;16.92;11.30;;;;;;;19.94;58.52;101630.06;4990764;28;20034;-67
2022/10/06 08:37:26;;;;;;;18.90;11.35;;;;;;;20.05;57.46;101617.00;4990664;28;20048;-67
2022/10/06 08:39:55;;;;;;;14.43;9.80;;;;;;;20.25;56.93;101638.56;4990271;28;20034;-66
2022/10/06 08:42:42;;;;;;;20.25;12.35;;;;;;;20.45;56.45;101618.19;5001985;28;20064;-67
2022/10/06 08:45:27;;;;;;;19.10;11.82;;;;;;;20.97;54.93;101639.63;4990762;28;20499;-65
2022/10/06 08:48:04;;;;;;;16.65;11.30;;;;;;;21.43;53.42;101635.31;4988906;28;20056;-65
2022/10/06 08:50:37;;;;;;;17.90;11.35;;;;;;;22.19;51.54;101636.50;4990341;28;20038;-66
2022/10/06 08:53:20;;;;;;;15.38;11.18;;;;;;;23.13;49.20;101637.97;4983715;28;20078;-67
2022/10/06 08:55:46;;;;;;;18.83;10.73;;;;;;;23.91;46.67;101635.69;4990299;28;20092;-67
2022/10/06 08:58:30;;;;;;;16.38;10.32;;;;;;;24.58;45.28;101628.13;4990169;28;20038;-67
2022/10/06 09:01:06;;;;;;;16.10;9.67;;;;;;;25.25;43.70;101629.50;4990088;28;20030;-65
2022/10/06 09:03:31;;;;;;;13.52;9.05;;;;;;;25.73;42.18;101615.72;4990366;28;20034;-66
2022/10/06 09:06:11;;;;;;;12.93;9.35;;;;;;;26.17;41.02;101623.63;4990082;28;20034;-66
2022/10/06 09:08:43;;;;;;;11.60;8.88;;;;;;;26.47;40.25;101623.13;4989800;28;20548;-64
2022/10/06 09:11:44;;;;;;;15.25;9.00;;;;;;;26.68;39.73;101616.66;4988713;28;20042;-77
2022/10/06 09:14:13;;;;;;;12.70;8.88;;;;;;;27.16;38.87;101617.38;4992140;28;20433;-77
2022/10/06 09:16:44;;;;;;;10.10;8.27;;;;;;;27.43;38.39;101630.97;5006079;28;20377;-77
2022/10/06 09:19:15;;;;;;;9.00;7.35;;;;;;;27.57;37.23;101634.56;5003863;28;20112;-67
2022/10/06 09:22:01;;;;;;;9.80;6.85;;;;;;;27.79;36.87;101628.59;5000247;28;20836;-67
2022/10/06 09:24:31;;;;;;;12.10;8.15;;;;;;;28.02;36.87;101634.50;4989661;28;20041;-66
2022/10/06 09:26:57;;;;;;;9.45;7.22;;;;;;;28.38;36.36;101622.91;4989004;28;20026;-66
2022/10/06 09:29:26;;;;;;;12.23;7.38;;;;;;;28.61;35.63;101636.22;4989925;28;20032;-65
2022/10/06 09:31:52;;;;;;;10.98;8.30;;;;;;;28.26;36.33;101633.81;4990257;28;20361;-66
2022/10/06 09:34:39;;;;;;;12.63;9.02;;;;;;;28.28;36.61;101626.13;4990094;28;20042;-65
2022/10/06 09:37:09;;;;;;;10.90;9.02;;;;;;;27.98;36.95;101635.16;4988442;28;20030;-66
2022/10/06 09:39:37;;;;;;;10.75;7.72;;;;;;;27.88;37.04;101637.50;4980165;28;20438;-66
2022/10/06 09:42:06;;;;;;;14.85;8.85;;;;;;;28.22;36.33;101624.28;4988716;28;20062;-65
2022/10/06 09:44:52;;;;;;;11.43;9.43;;;;;;;28.35;36.19;101628.88;4989923;28;20038;-66
2022/10/06 09:47:27;;;;;;;9.35;7.97;;;;;;;29.00;35.13;101623.00;4990428;28;20482;-65
2022/10/06 09:50:11;;;;;;;15.15;8.25;;;;;;;29.75;33.71;101624.75;4988373;28;20031;-66
2022/10/06 09:52:37;;;;;;;;;;;;;;;30.00;33.61;101628.31;4990175;28;20034;-65
2022/10/06 09:55:27;;;;;;;12.48;8.38;;;;;;;29.83;33.08;101589.34;4989747;28;19925;-65
2022/10/06 09:57:57;;;;;;;9.57;8.20;;;;;;;30.16;33.21;101633.25;4989705;28;20042;-65
2022/10/06 10:00:37;;;;;;;8.43;7.50;;;;;;;30.05;32.73;101631.25;4989582;28;20022;-66
2022/10/06 10:03:06;;;;;;;12.65;7.15;;;;;;;30.22;32.18;101630.44;4989726;28;20396;-66
2022/10/06 10:05:33;;;;;;;12.25;7.10;;;;;;;30.18;32.23;101620.88;4989532;28;20033;-66
2022/10/06 10:08:18;;;;;;;7.47;5.88;;;;;;;30.12;32.48;101619.00;4989510;28;20782;-66
2022/10/06 10:10:43;;;;;;;8.95;6.20;;;;;;;29.94;32.90;101627.31;4989421;28;20062;-66
2022/10/06 10:13:23;;;;;;;11.43;6.13;;;;;;;29.72;32.80;101626.06;4990914;28;20061;-76
2022/10/06 10:15:53;;;;;;;8.43;5.75;;;;;;;29.94;32.45;101618.16;4990591;28;20651;-66
2022/10/06 10:18:25;;;;;;;9.02;5.68;;;;;;;29.33;33.33;101631.06;4988753;28;20034;-65
2022/10/06 10:21:04;;;;;;;8.18;5.63;;;;;;;28.20;35.10;101639.34;4988994;28;20644;-67
2022/10/06 10:23:35;;;;;;;6.00;4.30;;;;;;;27.39;35.70;101643.47;4987222;28;20042;-66
2022/10/06 10:26:00;;;;;;;6.78;4.93;;;;;;;26.71;37.58;101638.28;4988981;28;20482;-77
2022/10/06 10:28:49;;;;;;;8.75;5.22;;;;;;;26.20;38.27;101647.97;4988330;28;20035;-77
2022/10/06 10:31:29;;;;;;;5.93;4.97;;;;;;;25.95;39.21;101646.75;4989138;28;20113;-66
2022/10/06 10:34:04;;;;;;;6.10;4.78;;;;;;;25.38;39.72;101644.25;4989365;28;20034;-68
2022/10/06 10:36:36;;;;;;;7.93;4.85;;;;;;;24.98;40.63;101633.88;4987684;28;20038;-66
2022/10/06 10:39:08;;;;;;;5.75;5.15;;;;;;;24.51;41.32;101635.44;4989101;28;20023;-67
2022/10/06 10:41:45;;;;;;;7.35;4.90;;;;;;;24.09;42.35;101647.16;4989318;28;20054;-66
2022/10/06 10:44:30;;;;;;;6.88;5.25;;;;;;;23.65;43.33;101654.47;4989199;28;20470;-67
2022/10/06 10:47:03;;;;;;;6.97;4.45;;;;;;;23.34;43.85;101640.91;4968595;28;20035;-67
2022/10/06 10:49:32;;;;;;;6.93;4.60;;;;;;;23.04;45.09;101639.06;4983968;28;20058;-67
2022/10/06 10:52:19;;;;;;;8.00;4.93;;;;;;;22.85;45.08;101634.09;4992908;28;20493;-67
2022/10/06 10:54:58;;;;;;;7.32;4.75;;;;;;;22.66;45.91;101641.94;4992645;28;20097;-66
2022/10/06 10:57:33;;;;;;;6.43;4.82;;;;;;;22.55;46.34;101637.72;4988979;28;20053;-67
2022/10/06 11:00:00;;;;;;;7.30;5.25;;;;;;;22.44;46.85;101638.06;4989394;28;20034;-67
2022/10/06 11:02:27;;;;;;;6.20;4.75;;;;;;;22.10;46.98;101591.09;4990259;28;20054;-67
2022/10/06 11:05:01;;;;;;;7.50;4.57;;;;;;;22.24;47.40;101637.69;4990029;28;20097;-67
2022/10/06 11:07:36;;;;;;;5.50;4.90;;;;;;;22.09;47.34;101619.47;4992053;28;20022;-66
2022/10/06 11:10:33;;;;;;;5.70;4.95;;;;;;;22.00;48.14;101623.25;4992686;28;20045;-76
2022/10/06 11:13:24;;;;;;;6.80;4.75;;;;;;;21.96;47.56;101621.91;4999132;28;20037;-75
2022/10/06 11:16:13;;;;;;;6.80;5.00;;;;;;;21.87;48.30;101612.03;5001567;28;20030;-76
2022/10/06 11:18:56;;;;;;;10.77;5.07;;;;;;;21.83;48.34;101618.91;5008262;28;20482;-76
2022/10/06 11:21:45;;;;;;;6.90;4.50;;;;;;;21.81;48.52;101610.00;4982787;28;20028;-76
2022/10/06 11:24:38;;;;;;;10.25;4.80;;;;;;;21.74;48.40;101619.94;4994107;28;20288;-76
2022/10/06 11:27:29;;;;;;;5.57;4.28;;;;;;;21.70;47.94;101610.38;4994099;28;20038;-76
2022/10/06 11:30:14;;;;;;;6.18;4.13;;;;;;;21.71;48.34;101612.94;4992499;28;20587;-76
2022/10/06 11:32:55;;;;;;;5.97;4.50;;;;;;;21.68;48.28;101604.22;5009581;28;20018;-76